sensor_id;sensor_type;location;lat;lon;timestamp;pressure;altitude;pressure_sealevel;temperature
18713;BMP280;9485;49.386;8.674;2023-10-08T00:04:04;101203.47;;;19.10
18713;BMP280;9485;49.386;8.674;2023-10-08T00:09:24;101210.97;;;19.13
18713;BMP280;9485;49.386;8.674;2023-10-08T00:14:45;101214.88;;;19.15
18713;BMP280;9485;49.386;8.674;2023-10-08T00:20:11;101213.31;;;19.14
18713;BMP280;9485;49.386;8.674;2023-10-08T00:25:44;101212.06;;;19.10
18713;BMP280;9485;49.386;8.674;2023-10-08T00:31:06;101218.06;;;19.06
18713;BMP280;9485;49.386;8.674;2023-10-08T00:36:32;101215.50;;;19.03
18713;BMP280;9485;49.386;8.674;2023-10-08T00:41:53;101211.38;;;18.98
18713;BMP280;9485;49.386;8.674;2023-10-08T00:47:18;101220.84;;;18.88
18713;BMP280;9485;49.386;8.674;2023-10-08T00:52:44;101221.19;;;18.79
18713;BMP280;9485;49.386;8.674;2023-10-08T00:58:16;101215.03;;;18.70
18713;BMP280;9485;49.386;8.674;2023-10-08T01:03:44;101210.19;;;18.59
18713;BMP280;9485;49.386;8.674;2023-10-08T01:09:10;101199.66;;;18.43
18713;BMP280;9485;49.386;8.674;2023-10-08T01:14:38;101212.72;;;18.39
18713;BMP280;9485;49.386;8.674;2023-10-08T01:20:01;101229.44;;;18.24
18713;BMP280;9485;49.386;8.674;2023-10-08T01:25:41;101220.94;;;18.08
18713;BMP280;9485;49.386;8.674;2023-10-08T01:31:02;101216.09;;;17.92
18713;BMP280;9485;49.386;8.674;2023-10-08T01:36:25;101203.16;;;17.85
18713;BMP280;9485;49.386;8.674;2023-10-08T01:41:49;101211.00;;;17.74
18713;BMP280;9485;49.386;8.674;2023-10-08T01:47:11;101207.66;;;17.70
18713;BMP280;9485;49.386;8.674;2023-10-08T01:52:31;101220.91;;;17.67
18713;BMP280;9485;49.386;8.674;2023-10-08T01:57:55;101214.66;;;17.69
18713;BMP280;9485;49.386;8.674;2023-10-08T02:03:16;101224.78;;;17.70
18713;BMP280;9485;49.386;8.674;2023-10-08T02:08:37;101214.19;;;17.65
18713;BMP280;9485;49.386;8.674;2023-10-08T02:13:59;101213.44;;;17.59
18713;BMP280;9485;49.386;8.674;2023-10-08T02:19:19;101215.22;;;17.56
18713;BMP280;9485;49.386;8.674;2023-10-08T02:24:46;101196.88;;;17.41
18713;BMP280;9485;49.386;8.674;2023-10-08T02:30:11;101200.25;;;17.39
18713;BMP280;9485;49.386;8.674;2023-10-08T02:35:32;101221.53;;;17.44
18713;BMP280;9485;49.386;8.674;2023-10-08T02:40:53;101205.69;;;17.43
18713;BMP280;9485;49.386;8.674;2023-10-08T02:46:17;101216.09;;;17.40
18713;BMP280;9485;49.386;8.674;2023-10-08T02:51:39;101229.09;;;17.36
18713;BMP280;9485;49.386;8.674;2023-10-08T02:57:00;101223.91;;;17.29
18713;BMP280;9485;49.386;8.674;2023-10-08T03:02:24;101213.00;;;17.22
18713;BMP280;9485;49.386;8.674;2023-10-08T03:07:45;101217.69;;;17.20
18713;BMP280;9485;49.386;8.674;2023-10-08T03:13:10;101208.59;;;17.16
18713;BMP280;9485;49.386;8.674;2023-10-08T03:18:34;101210.19;;;17.11
18713;BMP280;9485;49.386;8.674;2023-10-08T03:23:56;101207.34;;;17.00
18713;BMP280;9485;49.386;8.674;2023-10-08T03:29:18;101201.16;;;16.91
18713;BMP280;9485;49.386;8.674;2023-10-08T03:34:44;101199.59;;;16.90
18713;BMP280;9485;49.386;8.674;2023-10-08T03:40:07;101186.09;;;16.90
18713;BMP280;9485;49.386;8.674;2023-10-08T03:45:43;101198.31;;;16.91
18713;BMP280;9485;49.386;8.674;2023-10-08T03:51:14;101193.13;;;16.89
18713;BMP280;9485;49.386;8.674;2023-10-08T03:56:38;101203.75;;;16.89
18713;BMP280;9485;49.386;8.674;2023-10-08T04:02:04;101204.00;;;16.80
18713;BMP280;9485;49.386;8.674;2023-10-08T04:07:34;101210.00;;;16.71
18713;BMP280;9485;49.386;8.674;2023-10-08T04:13:20;101212.84;;;16.60
18713;BMP280;9485;49.386;8.674;2023-10-08T04:18:41;101215.72;;;16.55
18713;BMP280;9485;49.386;8.674;2023-10-08T04:24:03;101226.59;;;16.51
18713;BMP280;9485;49.386;8.674;2023-10-08T04:29:29;101223.50;;;16.43
18713;BMP280;9485;49.386;8.674;2023-10-08T04:34:51;101229.19;;;16.32
18713;BMP280;9485;49.386;8.674;2023-10-08T04:40:17;101229.16;;;16.27
18713;BMP280;9485;49.386;8.674;2023-10-08T04:45:37;101216.72;;;16.19
18713;BMP280;9485;49.386;8.674;2023-10-08T04:51:00;101216.69;;;16.13
18713;BMP280;9485;49.386;8.674;2023-10-08T04:56:23;101215.91;;;16.07
18713;BMP280;9485;49.386;8.674;2023-10-08T05:01:44;101217.97;;;16.01
18713;BMP280;9485;49.386;8.674;2023-10-08T05:07:07;101219.25;;;15.95
18713;BMP280;9485;49.386;8.674;2023-10-08T05:12:41;101222.88;;;15.95
18713;BMP280;9485;49.386;8.674;2023-10-08T05:18:06;101202.41;;;15.91
18713;BMP280;9485;49.386;8.674;2023-10-08T05:23:42;101207.34;;;15.91
18713;BMP280;9485;49.386;8.674;2023-10-08T05:29:29;101200.34;;;15.92
18713;BMP280;9485;49.386;8.674;2023-10-08T05:35:11;101195.16;;;15.96
18713;BMP280;9485;49.386;8.674;2023-10-08T05:40:51;101201.38;;;15.94
18713;BMP280;9485;49.386;8.674;2023-10-08T05:46:33;101224.41;;;15.96
18713;BMP280;9485;49.386;8.674;2023-10-08T05:52:07;101206.81;;;15.92
18713;BMP280;9485;49.386;8.674;2023-10-08T05:58:03;101222.38;;;15.97
18713;BMP280;9485;49.386;8.674;2023-10-08T06:03:45;101219.00;;;16.04
18713;BMP280;9485;49.386;8.674;2023-10-08T06:09:20;101223.16;;;16.08
18713;BMP280;9485;49.386;8.674;2023-10-08T06:14:41;101233.25;;;16.15
18713;BMP280;9485;49.386;8.674;2023-10-08T06:20:29;101242.34;;;16.24
18713;BMP280;9485;49.386;8.674;2023-10-08T06:25:51;101239.03;;;16.42
18713;BMP280;9485;49.386;8.674;2023-10-08T06:31:15;101244.22;;;16.65
18713;BMP280;9485;49.386;8.674;2023-10-08T06:36:37;101239.31;;;16.82
18713;BMP280;9485;49.386;8.674;2023-10-08T06:41:59;101248.09;;;16.95
18713;BMP280;9485;49.386;8.674;2023-10-08T06:47:23;101256.38;;;17.04
18713;BMP280;9485;49.386;8.674;2023-10-08T06:52:45;101256.38;;;17.15
18713;BMP280;9485;49.386;8.674;2023-10-08T06:58:06;101248.56;;;17.32
18713;BMP280;9485;49.386;8.674;2023-10-08T07:03:28;101249.34;;;17.38
18713;BMP280;9485;49.386;8.674;2023-10-08T07:08:51;101264.59;;;17.46
18713;BMP280;9485;49.386;8.674;2023-10-08T07:14:14;101285.59;;;17.59
18713;BMP280;9485;49.386;8.674;2023-10-08T07:19:34;101295.38;;;17.80
18713;BMP280;9485;49.386;8.674;2023-10-08T07:25:00;101295.56;;;18.04
18713;BMP280;9485;49.386;8.674;2023-10-08T07:30:21;101311.53;;;18.34
18713;BMP280;9485;49.386;8.674;2023-10-08T07:35:52;101334.44;;;18.69
18713;BMP280;9485;49.386;8.674;2023-10-08T07:41:19;101343.31;;;18.95
18713;BMP280;9485;49.386;8.674;2023-10-08T07:46:40;101332.69;;;19.25
18713;BMP280;9485;49.386;8.674;2023-10-08T07:52:00;101331.00;;;19.64
18713;BMP280;9485;49.386;8.674;2023-10-08T07:57:22;101329.22;;;20.03
18713;BMP280;9485;49.386;8.674;2023-10-08T08:02:46;101338.94;;;20.37
18713;BMP280;9485;49.386;8.674;2023-10-08T08:08:06;101328.22;;;20.56
18713;BMP280;9485;49.386;8.674;2023-10-08T08:13:29;101333.84;;;20.98
18713;BMP280;9485;49.386;8.674;2023-10-08T08:18:53;101342.56;;;21.24
18713;BMP280;9485;49.386;8.674;2023-10-08T08:24:16;101357.97;;;21.52
18713;BMP280;9485;49.386;8.674;2023-10-08T08:29:49;101352.53;;;21.36
18713;BMP280;9485;49.386;8.674;2023-10-08T08:35:11;101357.06;;;21.44
18713;BMP280;9485;49.386;8.674;2023-10-08T08:40:35;101355.94;;;21.34
18713;BMP280;9485;49.386;8.674;2023-10-08T08:45:57;101353.28;;;21.36
18713;BMP280;9485;49.386;8.674;2023-10-08T08:51:18;101352.28;;;21.34
18713;BMP280;9485;49.386;8.674;2023-10-08T08:56:42;101359.59;;;21.35
18713;BMP280;9485;49.386;8.674;2023-10-08T09:02:05;101344.34;;;21.40
18713;BMP280;9485;49.386;8.674;2023-10-08T09:07:29;101356.81;;;21.29
18713;BMP280;9485;49.386;8.674;2023-10-08T09:12:50;101361.56;;;21.27
18713;BMP280;9485;49.386;8.674;2023-10-08T09:18:14;101371.63;;;21.33
18713;BMP280;9485;49.386;8.674;2023-10-08T09:23:34;101373.72;;;21.33
18713;BMP280;9485;49.386;8.674;2023-10-08T09:28:58;101372.84;;;21.25
18713;BMP280;9485;49.386;8.674;2023-10-08T09:34:20;101372.53;;;21.28
18713;BMP280;9485;49.386;8.674;2023-10-08T09:39:42;101349.22;;;21.32
18713;BMP280;9485;49.386;8.674;2023-10-08T09:45:06;101351.06;;;21.29
18713;BMP280;9485;49.386;8.674;2023-10-08T09:50:36;101358.25;;;21.23
18713;BMP280;9485;49.386;8.674;2023-10-08T09:56:07;101373.69;;;21.20
18713;BMP280;9485;49.386;8.674;2023-10-08T10:01:37;101374.59;;;21.28
18713;BMP280;9485;49.386;8.674;2023-10-08T10:07:09;101379.97;;;21.50
18713;BMP280;9485;49.386;8.674;2023-10-08T10:12:31;101357.69;;;21.69
18713;BMP280;9485;49.386;8.674;2023-10-08T10:18:08;101345.31;;;21.99
18713;BMP280;9485;49.386;8.674;2023-10-08T10:23:39;101359.75;;;22.79
18713;BMP280;9485;49.386;8.674;2023-10-08T10:29:21;101364.75;;;23.32
18713;BMP280;9485;49.386;8.674;2023-10-08T10:34:45;101365.09;;;23.49
18713;BMP280;9485;49.386;8.674;2023-10-08T10:40:12;101362.19;;;23.69
18713;BMP280;9485;49.386;8.674;2023-10-08T10:45:35;101361.13;;;23.80
18713;BMP280;9485;49.386;8.674;2023-10-08T10:50:56;101353.69;;;23.64
18713;BMP280;9485;49.386;8.674;2023-10-08T10:56:32;101346.19;;;23.89
18713;BMP280;9485;49.386;8.674;2023-10-08T11:01:59;101345.22;;;24.22
18713;BMP280;9485;49.386;8.674;2023-10-08T11:07:27;101334.63;;;24.52
18713;BMP280;9485;49.386;8.674;2023-10-08T11:12:49;101325.44;;;24.76
18713;BMP280;9485;49.386;8.674;2023-10-08T11:18:14;101320.66;;;24.86
18713;BMP280;9485;49.386;8.674;2023-10-08T11:23:37;101312.53;;;24.84
18713;BMP280;9485;49.386;8.674;2023-10-08T11:29:02;101319.69;;;24.98
18713;BMP280;9485;49.386;8.674;2023-10-08T11:34:31;101335.56;;;25.49
18713;BMP280;9485;49.386;8.674;2023-10-08T11:39:57;101328.22;;;25.71
18713;BMP280;9485;49.386;8.674;2023-10-08T11:45:20;101322.84;;;25.60
18713;BMP280;9485;49.386;8.674;2023-10-08T11:50:44;101330.13;;;25.98
18713;BMP280;9485;49.386;8.674;2023-10-08T11:56:04;101341.09;;;26.68
18713;BMP280;9485;49.386;8.674;2023-10-08T12:01:34;101349.09;;;27.41
18713;BMP280;9485;49.386;8.674;2023-10-08T12:06:57;101347.50;;;28.30
18713;BMP280;9485;49.386;8.674;2023-10-08T12:12:22;101349.00;;;29.17
18713;BMP280;9485;49.386;8.674;2023-10-08T12:17:44;101335.47;;;29.84
18713;BMP280;9485;49.386;8.674;2023-10-08T12:23:12;101336.16;;;30.11
18713;BMP280;9485;49.386;8.674;2023-10-08T12:28:44;101328.47;;;30.44
18713;BMP280;9485;49.386;8.674;2023-10-08T12:34:08;101322.78;;;30.74
18713;BMP280;9485;49.386;8.674;2023-10-08T12:39:31;101322.16;;;30.85
18713;BMP280;9485;49.386;8.674;2023-10-08T12:44:51;101319.47;;;30.98
18713;BMP280;9485;49.386;8.674;2023-10-08T12:50:13;101308.38;;;31.25
18713;BMP280;9485;49.386;8.674;2023-10-08T12:55:35;101304.78;;;31.36
18713;BMP280;9485;49.386;8.674;2023-10-08T13:00:59;101303.31;;;31.46
18713;BMP280;9485;49.386;8.674;2023-10-08T13:06:26;101302.69;;;31.48
18713;BMP280;9485;49.386;8.674;2023-10-08T13:11:48;101291.56;;;31.35
18713;BMP280;9485;49.386;8.674;2023-10-08T13:17:09;101295.63;;;31.51
18713;BMP280;9485;49.386;8.674;2023-10-08T13:22:32;101294.53;;;31.56
18713;BMP280;9485;49.386;8.674;2023-10-08T13:27:56;101294.69;;;31.58
18713;BMP280;9485;49.386;8.674;2023-10-08T13:33:16;101297.84;;;31.01
18713;BMP280;9485;49.386;8.674;2023-10-08T13:38:40;101277.41;;;30.61
18713;BMP280;9485;49.386;8.674;2023-10-08T13:44:02;101263.47;;;30.22
18713;BMP280;9485;49.386;8.674;2023-10-08T13:49:25;101258.69;;;29.79
18713;BMP280;9485;49.386;8.674;2023-10-08T13:54:47;101252.72;;;29.23
18713;BMP280;9485;49.386;8.674;2023-10-08T14:00:12;101254.03;;;28.77
18713;BMP280;9485;49.386;8.674;2023-10-08T14:05:35;101252.13;;;28.36
18713;BMP280;9485;49.386;8.674;2023-10-08T14:10:58;101250.69;;;28.11
18713;BMP280;9485;49.386;8.674;2023-10-08T14:16:22;101250.47;;;27.82
18713;BMP280;9485;49.386;8.674;2023-10-08T14:21:48;101245.28;;;27.56
18713;BMP280;9485;49.386;8.674;2023-10-08T14:27:15;101235.88;;;27.32
18713;BMP280;9485;49.386;8.674;2023-10-08T14:32:37;101228.44;;;26.97
18713;BMP280;9485;49.386;8.674;2023-10-08T14:37:59;101219.72;;;26.72
18713;BMP280;9485;49.386;8.674;2023-10-08T14:43:39;101209.97;;;26.60
18713;BMP280;9485;49.386;8.674;2023-10-08T14:49:03;101205.22;;;26.48
18713;BMP280;9485;49.386;8.674;2023-10-08T14:54:29;101197.75;;;26.38
18713;BMP280;9485;49.386;8.674;2023-10-08T14:59:54;101198.97;;;26.27
18713;BMP280;9485;49.386;8.674;2023-10-08T15:05:15;101186.66;;;26.19
18713;BMP280;9485;49.386;8.674;2023-10-08T15:10:36;101180.31;;;26.13
18713;BMP280;9485;49.386;8.674;2023-10-08T15:15:58;101172.25;;;26.04
18713;BMP280;9485;49.386;8.674;2023-10-08T15:21:23;101162.16;;;25.81
18713;BMP280;9485;49.386;8.674;2023-10-08T15:26:44;101168.34;;;25.70
18713;BMP280;9485;49.386;8.674;2023-10-08T15:32:08;101166.25;;;25.56
18713;BMP280;9485;49.386;8.674;2023-10-08T15:37:29;101163.44;;;25.33
18713;BMP280;9485;49.386;8.674;2023-10-08T15:42:52;101159.22;;;25.12
18713;BMP280;9485;49.386;8.674;2023-10-08T15:48:15;101167.53;;;24.93
18713;BMP280;9485;49.386;8.674;2023-10-08T15:53:35;101171.19;;;24.71
18713;BMP280;9485;49.386;8.674;2023-10-08T15:58:56;101158.28;;;24.50
18713;BMP280;9485;49.386;8.674;2023-10-08T16:04:18;101162.09;;;24.30
18713;BMP280;9485;49.386;8.674;2023-10-08T16:09:40;101153.34;;;24.08
18713;BMP280;9485;49.386;8.674;2023-10-08T16:15:01;101145.06;;;23.89
18713;BMP280;9485;49.386;8.674;2023-10-08T16:20:24;101140.78;;;23.75
18713;BMP280;9485;49.386;8.674;2023-10-08T16:25:45;101137.59;;;23.58
18713;BMP280;9485;49.386;8.674;2023-10-08T16:31:08;101139.81;;;23.45
18713;BMP280;9485;49.386;8.674;2023-10-08T16:36:30;101143.63;;;23.33
18713;BMP280;9485;49.386;8.674;2023-10-08T16:41:52;101134.66;;;23.16
18713;BMP280;9485;49.386;8.674;2023-10-08T16:47:13;101143.53;;;22.97
18713;BMP280;9485;49.386;8.674;2023-10-08T16:52:37;101163.19;;;22.78
18713;BMP280;9485;49.386;8.674;2023-10-08T16:57:59;101166.06;;;22.58
18713;BMP280;9485;49.386;8.674;2023-10-08T17:03:20;101163.22;;;22.38
18713;BMP280;9485;49.386;8.674;2023-10-08T17:08:43;101175.22;;;22.16
18713;BMP280;9485;49.386;8.674;2023-10-08T17:14:03;101166.78;;;21.97
18713;BMP280;9485;49.386;8.674;2023-10-08T17:19:24;101167.56;;;21.85
18713;BMP280;9485;49.386;8.674;2023-10-08T17:24:48;101180.88;;;21.75
18713;BMP280;9485;49.386;8.674;2023-10-08T17:30:11;101173.16;;;21.57
18713;BMP280;9485;49.386;8.674;2023-10-08T17:35:38;101172.50;;;21.38
18713;BMP280;9485;49.386;8.674;2023-10-08T17:41:02;101174.72;;;21.19
18713;BMP280;9485;49.386;8.674;2023-10-08T17:46:23;101170.88;;;21.04
18713;BMP280;9485;49.386;8.674;2023-10-08T17:51:45;101156.78;;;20.88
18713;BMP280;9485;49.386;8.674;2023-10-08T17:57:07;101152.34;;;20.74
18713;BMP280;9485;49.386;8.674;2023-10-08T18:02:32;101157.63;;;20.57
18713;BMP280;9485;49.386;8.674;2023-10-08T18:07:54;101159.97;;;20.40
18713;BMP280;9485;49.386;8.674;2023-10-08T18:13:15;101158.41;;;20.26
18713;BMP280;9485;49.386;8.674;2023-10-08T18:18:37;101149.50;;;20.11
18713;BMP280;9485;49.386;8.674;2023-10-08T18:23:59;101138.47;;;20.02
18713;BMP280;9485;49.386;8.674;2023-10-08T18:29:22;101149.81;;;19.89
18713;BMP280;9485;49.386;8.674;2023-10-08T18:34:42;101150.22;;;19.80
18713;BMP280;9485;49.386;8.674;2023-10-08T18:40:04;101155.34;;;19.69
18713;BMP280;9485;49.386;8.674;2023-10-08T18:45:34;101158.88;;;19.57
18713;BMP280;9485;49.386;8.674;2023-10-08T18:50:55;101153.63;;;19.42
18713;BMP280;9485;49.386;8.674;2023-10-08T18:56:24;101150.66;;;19.29
18713;BMP280;9485;49.386;8.674;2023-10-08T19:01:46;101151.78;;;19.21
18713;BMP280;9485;49.386;8.674;2023-10-08T19:07:06;101137.09;;;19.06
18713;BMP280;9485;49.386;8.674;2023-10-08T19:12:27;101138.25;;;18.97
18713;BMP280;9485;49.386;8.674;2023-10-08T19:17:51;101130.88;;;18.83
18713;BMP280;9485;49.386;8.674;2023-10-08T19:23:13;101132.84;;;18.70
18713;BMP280;9485;49.386;8.674;2023-10-08T19:28:34;101144.03;;;18.68
18713;BMP280;9485;49.386;8.674;2023-10-08T19:33:56;101135.56;;;18.57
18713;BMP280;9485;49.386;8.674;2023-10-08T19:39:17;101137.69;;;18.51
18713;BMP280;9485;49.386;8.674;2023-10-08T19:44:37;101133.41;;;18.39
18713;BMP280;9485;49.386;8.674;2023-10-08T19:50:00;101131.69;;;18.25
18713;BMP280;9485;49.386;8.674;2023-10-08T19:55:25;101118.72;;;18.19
18713;BMP280;9485;49.386;8.674;2023-10-08T20:00:47;101122.94;;;18.12
18713;BMP280;9485;49.386;8.674;2023-10-08T20:06:10;101124.53;;;18.08
18713;BMP280;9485;49.386;8.674;2023-10-08T20:11:33;101123.81;;;18.02
18713;BMP280;9485;49.386;8.674;2023-10-08T20:16:55;101120.72;;;17.95
18713;BMP280;9485;49.386;8.674;2023-10-08T20:22:16;101116.13;;;17.86
18713;BMP280;9485;49.386;8.674;2023-10-08T20:27:39;101122.66;;;17.81
18713;BMP280;9485;49.386;8.674;2023-10-08T20:33:00;101119.56;;;17.79
18713;BMP280;9485;49.386;8.674;2023-10-08T20:38:22;101120.13;;;17.72
18713;BMP280;9485;49.386;8.674;2023-10-08T20:43:44;101110.34;;;17.62
18713;BMP280;9485;49.386;8.674;2023-10-08T20:49:04;101109.09;;;17.52
18713;BMP280;9485;49.386;8.674;2023-10-08T20:54:27;101102.84;;;17.54
18713;BMP280;9485;49.386;8.674;2023-10-08T20:59:48;101108.31;;;17.52
18713;BMP280;9485;49.386;8.674;2023-10-08T21:05:09;101103.41;;;17.47
18713;BMP280;9485;49.386;8.674;2023-10-08T21:10:34;101102.44;;;17.33
18713;BMP280;9485;49.386;8.674;2023-10-08T21:15:55;101093.66;;;17.21
18713;BMP280;9485;49.386;8.674;2023-10-08T21:21:20;101102.72;;;17.25
18713;BMP280;9485;49.386;8.674;2023-10-08T21:26:43;101100.16;;;17.16
18713;BMP280;9485;49.386;8.674;2023-10-08T21:32:04;101100.72;;;17.09
18713;BMP280;9485;49.386;8.674;2023-10-08T21:37:26;101094.25;;;17.03
18713;BMP280;9485;49.386;8.674;2023-10-08T21:42:51;101089.06;;;17.01
18713;BMP280;9485;49.386;8.674;2023-10-08T21:48:12;101086.50;;;16.92
18713;BMP280;9485;49.386;8.674;2023-10-08T21:53:33;101081.59;;;16.87
18713;BMP280;9485;49.386;8.674;2023-10-08T21:58:55;101093.28;;;16.84
18713;BMP280;9485;49.386;8.674;2023-10-08T22:04:15;101084.22;;;16.80
18713;BMP280;9485;49.386;8.674;2023-10-08T22:09:36;101084.75;;;16.73
18713;BMP280;9485;49.386;8.674;2023-10-08T22:14:58;101080.09;;;16.70
18713;BMP280;9485;49.386;8.674;2023-10-08T22:20:25;101072.34;;;16.65
18713;BMP280;9485;49.386;8.674;2023-10-08T22:26:03;101052.13;;;16.57
18713;BMP280;9485;49.386;8.674;2023-10-08T22:31:26;101044.66;;;16.55
18713;BMP280;9485;49.386;8.674;2023-10-08T22:36:47;101044.38;;;16.53
18713;BMP280;9485;49.386;8.674;2023-10-08T22:42:20;101031.97;;;16.45
18713;BMP280;9485;49.386;8.674;2023-10-08T22:47:46;101036.63;;;16.48
18713;BMP280;9485;49.386;8.674;2023-10-08T22:53:10;101028.09;;;16.48
18713;BMP280;9485;49.386;8.674;2023-10-08T22:58:30;101025.47;;;16.50
18713;BMP280;9485;49.386;8.674;2023-10-08T23:03:56;101022.88;;;16.52
18713;BMP280;9485;49.386;8.674;2023-10-08T23:09:23;101017.97;;;16.47
18713;BMP280;9485;49.386;8.674;2023-10-08T23:14:45;101023.91;;;16.49
18713;BMP280;9485;49.386;8.674;2023-10-08T23:20:10;101024.69;;;16.49
18713;BMP280;9485;49.386;8.674;2023-10-08T23:25:35;101016.94;;;16.44
18713;BMP280;9485;49.386;8.674;2023-10-08T23:31:01;101007.06;;;16.45
18713;BMP280;9485;49.386;8.674;2023-10-08T23:36:23;101014.09;;;16.44
18713;BMP280;9485;49.386;8.674;2023-10-08T23:41:53;101005.28;;;16.48
18713;BMP280;9485;49.386;8.674;2023-10-08T23:47:21;100999.84;;;16.44
18713;BMP280;9485;49.386;8.674;2023-10-08T23:52:47;101005.00;;;16.46
18713;BMP280;9485;49.386;8.674;2023-10-08T23:58:09;100992.06;;;16.39
